createdAt,value
2019-03-30T00:00:03.512Z,16.40
2019-03-30T00:02:37.501Z,15.30
2019-03-30T00:05:27.450Z,18.27
2019-03-30T00:08:17.690Z,23.20
2019-03-30T00:10:57.076Z,16.00
2019-03-30T00:13:34.313Z,14.70
2019-03-30T00:16:08.894Z,14.60
2019-03-30T00:18:49.346Z,14.87
2019-03-30T00:21:22.042Z,14.27
2019-03-30T00:23:57.871Z,13.30
2019-03-30T00:26:31.119Z,14.57
2019-03-30T00:29:04.273Z,15.10
2019-03-30T00:31:37.355Z,15.17
2019-03-30T00:34:09.463Z,16.03
2019-03-30T00:36:46.428Z,15.50
2019-03-30T00:39:18.149Z,15.70
2019-03-30T00:42:04.840Z,14.80
2019-03-30T00:44:37.350Z,14.40
2019-03-30T00:47:10.398Z,16.03
2019-03-30T00:49:49.145Z,14.60
2019-03-30T00:52:22.022Z,14.70
2019-03-30T00:54:58.783Z,12.80
2019-03-30T00:57:32.642Z,14.07
2019-03-30T01:00:07.925Z,14.77
2019-03-30T01:02:42.227Z,14.80
2019-03-30T01:05:16.079Z,15.90
2019-03-30T01:07:52.078Z,15.50
2019-03-30T01:10:36.644Z,16.27
2019-03-30T01:13:10.008Z,15.90
2019-03-30T01:15:49.073Z,14.93
2019-03-30T01:18:25.602Z,16.07
2019-03-30T01:20:57.398Z,17.50
2019-03-30T01:23:47.091Z,15.97
2019-03-30T01:26:27.154Z,15.23
2019-03-30T01:29:00.535Z,16.80
2019-03-30T01:31:36.459Z,17.03
2019-03-30T01:34:10.312Z,16.30
2019-03-30T01:36:44.248Z,16.27
2019-03-30T01:39:15.336Z,16.80
2019-03-30T01:41:48.453Z,17.43
2019-03-30T01:44:21.374Z,17.03
2019-03-30T01:47:11.022Z,15.80
2019-03-30T01:49:45.392Z,15.90
2019-03-30T01:52:19.445Z,17.20
2019-03-30T01:55:03.261Z,16.10
2019-03-30T01:57:39.694Z,15.93
2019-03-30T02:00:14.484Z,18.07
2019-03-30T02:02:47.337Z,17.60
2019-03-30T02:05:20.350Z,16.50
2019-03-30T02:07:53.519Z,17.30
2019-03-30T02:10:46.862Z,16.87
2019-03-30T02:13:19.919Z,16.40
2019-03-30T02:15:53.914Z,17.47
2019-03-30T02:18:26.790Z,17.93
2019-03-30T02:21:06.583Z,16.30
2019-03-30T02:23:39.431Z,15.53
2019-03-30T02:26:13.523Z,14.13
2019-03-30T02:28:57.574Z,15.00
2019-03-30T02:31:29.861Z,14.23
2019-03-30T02:34:04.486Z,14.63
2019-03-30T02:36:37.741Z,14.00
2019-03-30T02:39:10.489Z,13.87
2019-03-30T02:41:41.904Z,15.27
2019-03-30T02:44:15.684Z,14.10
2019-03-30T02:47:05.403Z,13.90
2019-03-30T02:49:39.492Z,15.00
2019-03-30T02:52:13.422Z,14.00
2019-03-30T02:54:44.972Z,14.10
2019-03-30T02:57:17.959Z,14.53
2019-03-30T02:59:53.601Z,14.80
2019-03-30T03:02:27.670Z,14.20
2019-03-30T03:04:59.611Z,14.80
2019-03-30T03:07:35.246Z,13.77
2019-03-30T03:10:07.440Z,13.60
2019-03-30T03:12:38.599Z,13.67
2019-03-30T03:15:12.292Z,14.47
2019-03-30T03:17:45.000Z,15.20
2019-03-30T03:20:18.136Z,12.97
2019-03-30T03:22:50.848Z,14.87
2019-03-30T03:25:24.024Z,15.03
2019-03-30T03:27:58.279Z,13.90
2019-03-30T03:30:35.980Z,13.53
2019-03-30T03:33:09.947Z,13.97
2019-03-30T03:35:50.869Z,13.17
2019-03-30T03:38:23.826Z,13.07
2019-03-30T03:40:57.708Z,14.97
2019-03-30T03:43:29.941Z,13.50
2019-03-30T03:46:03.966Z,13.77
2019-03-30T03:48:36.129Z,14.23
2019-03-30T03:51:24.760Z,14.03
2019-03-30T03:53:41.987Z,14.60
2019-03-30T03:56:15.883Z,13.97
2019-03-30T03:58:51.669Z,14.80
2019-03-30T04:01:27.885Z,15.07
2019-03-30T04:04:04.751Z,14.43
2019-03-30T04:06:40.495Z,15.20
2019-03-30T04:09:15.230Z,15.80
2019-03-30T04:11:51.634Z,14.03
2019-03-30T04:14:28.509Z,13.73
2019-03-30T04:17:00.042Z,13.90
2019-03-30T04:19:37.414Z,14.60
2019-03-30T04:22:10.152Z,14.27
2019-03-30T04:24:59.568Z,14.47
2019-03-30T04:27:49.098Z,14.83
2019-03-30T04:30:39.159Z,14.97
2019-03-30T04:33:12.527Z,14.27
2019-03-30T04:35:45.135Z,14.97
2019-03-30T04:38:17.350Z,14.90
2019-03-30T04:40:52.915Z,15.93
2019-03-30T04:43:24.776Z,16.37
2019-03-30T04:45:58.436Z,14.10
2019-03-30T04:48:33.158Z,14.93
2019-03-30T04:51:07.870Z,16.40
2019-03-30T04:53:41.199Z,14.20
2019-03-30T04:56:14.423Z,14.87
2019-03-30T04:58:52.387Z,14.50
2019-03-30T05:01:26.744Z,15.47
2019-03-30T05:04:02.148Z,15.60
2019-03-30T05:06:35.549Z,15.13
2019-03-30T05:09:10.561Z,14.13
2019-03-30T05:11:43.416Z,14.13
2019-03-30T05:14:17.565Z,14.97
2019-03-30T05:16:52.359Z,14.50
2019-03-30T05:19:24.559Z,15.27
2019-03-30T05:22:11.421Z,14.73
2019-03-30T05:24:49.893Z,16.33
2019-03-30T05:27:27.026Z,15.60
2019-03-30T05:30:05.396Z,15.20
2019-03-30T05:32:41.758Z,15.20
2019-03-30T05:35:16.383Z,15.77
2019-03-30T05:37:48.658Z,16.97
2019-03-30T05:40:23.437Z,17.30
2019-03-30T05:43:13.368Z,16.07
2019-03-30T05:45:45.606Z,15.87
2019-03-30T05:48:18.479Z,16.47
2019-03-30T05:50:53.573Z,16.37
2019-03-30T05:53:27.308Z,19.47
2019-03-30T05:56:02.135Z,19.17
2019-03-30T05:58:51.614Z,18.73
2019-03-30T06:01:24.592Z,17.30
2019-03-30T06:04:03.475Z,17.03
2019-03-30T06:06:35.591Z,16.40
2019-03-30T06:09:09.549Z,18.00
2019-03-30T06:11:42.745Z,16.27
2019-03-30T06:14:21.517Z,17.60
2019-03-30T06:16:55.623Z,17.23
2019-03-30T06:19:40.487Z,16.87
2019-03-30T06:22:12.859Z,18.27
2019-03-30T06:24:45.949Z,18.27
2019-03-30T06:27:18.765Z,17.13
2019-03-30T06:30:15.023Z,17.87
2019-03-30T06:32:46.582Z,18.90
2019-03-30T06:35:18.890Z,19.60
2019-03-30T06:37:53.600Z,20.03
2019-03-30T06:40:24.735Z,20.10
2019-03-30T06:42:57.982Z,20.20
2019-03-30T06:45:34.256Z,19.77
2019-03-30T06:48:06.914Z,20.77
2019-03-30T06:50:38.020Z,20.23
2019-03-30T06:53:10.514Z,20.03
2019-03-30T06:55:42.950Z,19.70
2019-03-30T06:58:17.157Z,21.10
2019-03-30T07:00:50.435Z,20.63
2019-03-30T07:03:23.290Z,19.40
2019-03-30T07:05:59.196Z,20.10
2019-03-30T07:08:46.963Z,20.23
2019-03-30T07:11:21.283Z,20.30
2019-03-30T07:13:56.481Z,20.90
2019-03-30T07:16:29.567Z,20.23
2019-03-30T07:19:04.581Z,20.67
2019-03-30T07:21:40.574Z,19.60
2019-03-30T07:24:15.812Z,19.50
2019-03-30T07:26:52.085Z,20.93
2019-03-30T07:29:25.063Z,20.93
2019-03-30T07:31:58.011Z,18.83
2019-03-30T07:34:33.147Z,21.97
2019-03-30T07:37:04.802Z,21.03
2019-03-30T07:39:40.277Z,21.80
2019-03-30T07:42:16.969Z,22.10
2019-03-30T07:44:52.196Z,24.97
2019-03-30T07:47:26.655Z,22.77
2019-03-30T07:50:01.707Z,22.47
2019-03-30T07:52:37.025Z,21.87
2019-03-30T07:55:21.028Z,22.53
2019-03-30T07:57:56.361Z,23.93
2019-03-30T08:00:51.312Z,23.27
2019-03-30T08:03:27.453Z,22.80
2019-03-30T08:06:08.422Z,22.93
2019-03-30T08:08:44.715Z,24.20
2019-03-30T08:11:35.772Z,23.60
2019-03-30T08:14:25.811Z,23.50
2019-03-30T08:16:57.465Z,24.97
2019-03-30T08:19:29.126Z,24.60
2019-03-30T08:22:05.260Z,22.60
2019-03-30T08:24:40.809Z,23.43
2019-03-30T08:27:16.823Z,23.40
2019-03-30T08:30:02.930Z,24.57
2019-03-30T08:32:38.093Z,23.30
2019-03-30T08:35:28.328Z,24.13
2019-03-30T08:38:09.134Z,25.47
2019-03-30T08:40:43.425Z,25.00
2019-03-30T08:43:21.219Z,25.90
2019-03-30T08:45:54.395Z,24.30
2019-03-30T08:48:27.131Z,23.63
2019-03-30T08:51:01.019Z,24.43
2019-03-30T08:53:54.051Z,25.47
2019-03-30T08:56:28.158Z,26.30
2019-03-30T08:59:02.672Z,27.07
2019-03-30T09:01:52.696Z,26.17
2019-03-30T09:04:25.427Z,26.33
2019-03-30T09:06:58.706Z,26.10
2019-03-30T09:09:36.185Z,25.43
2019-03-30T09:12:08.726Z,27.83
2019-03-30T09:14:58.207Z,29.40
2019-03-30T09:17:49.064Z,29.10
2019-03-30T09:20:20.599Z,27.90
2019-03-30T09:22:51.762Z,30.60
2019-03-30T09:25:25.124Z,32.40
2019-03-30T09:27:59.454Z,29.77
2019-03-30T09:30:38.731Z,29.17
2019-03-30T09:33:12.431Z,26.83
2019-03-30T09:35:45.675Z,28.70
2019-03-30T09:38:18.569Z,29.67
2019-03-30T09:40:53.373Z,29.17
2019-03-30T09:43:25.044Z,30.60
2019-03-30T09:45:58.706Z,30.07
2019-03-30T09:48:32.829Z,27.60
2019-03-30T09:51:13.537Z,27.70
2019-03-30T09:53:48.670Z,28.67
2019-03-30T09:56:40.081Z,27.00
2019-03-30T09:59:12.565Z,26.53
2019-03-30T10:01:46.782Z,29.80
2019-03-30T10:04:28.201Z,40.47
2019-03-30T10:07:03.652Z,30.40
2019-03-30T10:09:41.077Z,26.33
2019-03-30T10:12:32.904Z,25.53
2019-03-30T10:15:10.663Z,26.40
2019-03-30T10:17:48.766Z,33.40
2019-03-30T10:20:22.902Z,35.30
2019-03-30T10:22:56.788Z,36.73
2019-03-30T10:25:36.918Z,28.23
2019-03-30T10:28:10.247Z,27.07
2019-03-30T10:30:42.108Z,26.27
2019-03-30T10:33:20.798Z,29.37
2019-03-30T10:35:58.924Z,27.97
2019-03-30T10:38:32.383Z,27.37
2019-03-30T10:41:13.917Z,25.27
2019-03-30T10:43:50.182Z,27.10
2019-03-30T10:46:21.978Z,25.37
2019-03-30T10:48:56.137Z,27.03
2019-03-30T10:51:32.209Z,26.60
2019-03-30T10:54:13.392Z,23.77
2019-03-30T10:56:46.291Z,25.03
2019-03-30T10:59:21.179Z,22.70
2019-03-30T11:01:57.947Z,21.20
2019-03-30T11:04:40.706Z,23.10
2019-03-30T11:07:19.880Z,21.80
2019-03-30T11:09:53.588Z,23.07
2019-03-30T11:12:27.776Z,23.40
2019-03-30T11:15:02.908Z,20.20
2019-03-30T11:17:54.591Z,22.07
2019-03-30T11:20:27.343Z,24.87
2019-03-30T11:23:02.425Z,22.90
2019-03-30T11:25:52.777Z,25.20
2019-03-30T11:28:48.164Z,25.70
2019-03-30T11:31:16.196Z,24.13
2019-03-30T11:33:49.824Z,24.80
2019-03-30T11:36:22.217Z,24.87
2019-03-30T11:39:13.358Z,25.37
2019-03-30T11:41:57.015Z,27.93
2019-03-30T11:44:32.277Z,23.17
2019-03-30T11:47:15.984Z,23.10
2019-03-30T11:49:49.945Z,21.73
2019-03-30T11:52:28.128Z,22.13
2019-03-30T11:55:02.745Z,22.57
2019-03-30T11:57:36.379Z,21.63
2019-03-30T12:00:10.806Z,20.57
2019-03-30T12:02:43.489Z,20.43
2019-03-30T12:05:16.390Z,19.73
2019-03-30T12:07:49.961Z,19.07
2019-03-30T12:10:22.349Z,17.80
2019-03-30T12:12:56.590Z,18.57
2019-03-30T12:15:29.335Z,21.43
2019-03-30T12:18:02.232Z,23.20
2019-03-30T12:20:41.387Z,20.30
2019-03-30T12:23:29.067Z,18.10
2019-03-30T12:26:06.927Z,19.23
2019-03-30T12:29:09.364Z,19.47
2019-03-30T12:31:45.116Z,20.70
2019-03-30T12:34:18.901Z,22.03
2019-03-30T12:37:09.165Z,20.57
2019-03-30T12:39:44.754Z,20.40
2019-03-30T12:42:16.260Z,19.57
2019-03-30T12:44:56.795Z,18.23
2019-03-30T12:47:28.844Z,20.40
2019-03-30T12:50:03.521Z,19.60
2019-03-30T12:52:39.174Z,18.63
2019-03-30T12:55:17.084Z,18.67
2019-03-30T12:58:10.143Z,20.90
2019-03-30T13:00:48.241Z,21.27
2019-03-30T13:03:19.520Z,18.43
2019-03-30T13:05:52.370Z,19.87
2019-03-30T13:08:26.077Z,21.10
2019-03-30T13:10:59.859Z,19.30
2019-03-30T13:13:35.225Z,18.60
2019-03-30T13:16:18.314Z,17.27
2019-03-30T13:18:49.544Z,17.77
2019-03-30T13:21:26.782Z,16.87
2019-03-30T13:24:12.982Z,19.33
2019-03-30T13:27:12.815Z,19.03
2019-03-30T13:30:10.385Z,19.17
2019-03-30T13:33:00.833Z,19.70
2019-03-30T13:35:39.942Z,18.40
2019-03-30T13:38:39.289Z,16.90
2019-03-30T13:41:15.043Z,16.23
2019-03-30T13:43:48.864Z,16.10
2019-03-30T13:46:27.265Z,16.83
2019-03-30T13:49:02.446Z,17.70
2019-03-30T13:54:41.342Z,15.87
2019-03-30T13:57:28.532Z,17.00
2019-03-30T14:00:01.784Z,19.43
2019-03-30T14:02:47.332Z,17.90
2019-03-30T14:05:28.994Z,18.77
2019-03-30T14:08:12.753Z,16.90
2019-03-30T14:10:48.721Z,17.43
2019-03-30T14:14:27.778Z,17.40
2019-03-30T14:17:13.253Z,16.20
2019-03-30T14:19:55.978Z,16.47
2019-03-30T14:22:38.852Z,16.33
2019-03-30T14:25:13.410Z,17.57
2019-03-30T14:28:03.578Z,16.97
2019-03-30T14:30:47.591Z,17.00
2019-03-30T14:33:19.290Z,16.70
2019-03-30T14:36:17.048Z,16.13
2019-03-30T14:39:01.703Z,16.80
2019-03-30T14:41:55.572Z,16.60
2019-03-30T14:44:49.301Z,15.60
2019-03-30T14:47:25.308Z,16.10
2019-03-30T14:49:57.919Z,15.33
2019-03-30T14:52:34.795Z,15.07
2019-03-30T14:55:27.859Z,16.30
2019-03-30T14:58:05.439Z,16.27
2019-03-30T15:00:50.360Z,17.00
2019-03-30T15:03:25.553Z,15.13
2019-03-30T15:06:10.210Z,13.47
2019-03-30T15:08:45.902Z,13.80
2019-03-30T15:11:39.090Z,14.17
2019-03-30T15:14:29.518Z,14.43
2019-03-30T15:17:04.588Z,15.67
2019-03-30T15:19:59.697Z,13.70
2019-03-30T15:22:37.602Z,14.37
2019-03-30T15:25:15.104Z,14.10
2019-03-30T15:28:01.940Z,14.47
2019-03-30T15:30:43.172Z,14.70
2019-03-30T15:33:24.818Z,12.00
2019-03-30T15:36:01.443Z,13.70
2019-03-30T15:38:38.054Z,14.00
2019-03-30T15:41:10.941Z,12.53
2019-03-30T15:43:51.853Z,12.47
2019-03-30T15:46:30.922Z,12.23
2019-03-30T15:49:09.716Z,13.00
2019-03-30T15:51:56.390Z,12.60
2019-03-30T15:54:37.340Z,11.00
2019-03-30T15:57:14.175Z,12.77
2019-03-30T16:00:08.333Z,12.10
2019-03-30T16:02:52.871Z,12.50
2019-03-30T16:05:42.782Z,12.27
2019-03-30T16:08:22.062Z,12.90
2019-03-30T16:11:04.078Z,12.23
2019-03-30T16:13:51.697Z,10.70
2019-03-30T16:16:37.226Z,17.10
2019-03-30T16:19:47.493Z,22.90
2019-03-30T16:22:31.442Z,19.00
2019-03-30T16:25:17.802Z,13.93
2019-03-30T16:27:56.124Z,12.27
2019-03-30T16:30:49.567Z,12.40
2019-03-30T16:33:41.183Z,10.13
2019-03-30T16:36:17.097Z,10.57
2019-03-30T16:38:57.035Z,10.17
2019-03-30T16:45:28.858Z,10.27
2019-03-30T16:48:15.979Z,11.80
2019-03-30T16:51:05.650Z,9.63
2019-03-30T16:53:49.928Z,9.67
2019-03-30T16:56:39.969Z,11.30
2019-03-30T16:59:50.268Z,10.53
2019-03-30T17:02:48.863Z,9.60
2019-03-30T17:06:05.242Z,10.30
2019-03-30T17:09:07.862Z,9.83
2019-03-30T17:12:19.893Z,9.43
2019-03-30T17:15:26.265Z,9.90
2019-03-30T17:18:16.911Z,10.23
2019-03-30T17:21:14.173Z,9.90
2019-03-30T17:24:02.520Z,10.67
2019-03-30T17:26:51.458Z,39.70
2019-03-30T17:29:32.246Z,17.50
2019-03-30T17:32:11.760Z,13.47
2019-03-30T17:35:09.311Z,11.90
2019-03-30T17:37:43.040Z,10.93
2019-03-30T17:40:17.845Z,10.33
2019-03-30T17:43:11.002Z,10.50
2019-03-30T17:45:58.639Z,10.30
2019-03-30T17:48:37.473Z,10.43
2019-03-30T17:51:11.668Z,10.70
2019-03-30T17:54:16.190Z,12.23
2019-03-30T18:00:09.873Z,22.43
2019-03-30T18:03:00.235Z,17.70
2019-03-30T18:05:43.066Z,20.23
2019-03-30T18:08:18.878Z,21.90
2019-03-30T18:11:03.858Z,14.53
2019-03-30T18:13:47.812Z,12.93
2019-03-30T18:16:22.380Z,11.40
2019-03-30T18:18:54.245Z,12.03
2019-03-30T18:21:25.955Z,11.50
2019-03-30T18:24:18.704Z,11.13
2019-03-30T18:27:08.678Z,11.07
2019-03-30T18:29:41.947Z,12.00
2019-03-30T18:32:37.835Z,12.27
2019-03-30T18:35:09.779Z,12.00
2019-03-30T18:37:43.925Z,11.03
2019-03-30T18:40:30.793Z,11.00
2019-03-30T18:43:20.684Z,12.73
2019-03-30T18:45:53.262Z,11.00
2019-03-30T18:48:27.150Z,12.73
2019-03-30T18:51:19.511Z,13.23
2019-03-30T18:54:04.335Z,12.70
2019-03-30T18:56:54.111Z,14.07
2019-03-30T19:00:05.716Z,14.00
2019-03-30T19:02:47.822Z,13.20
2019-03-30T19:05:45.154Z,14.27
2019-03-30T19:08:34.331Z,12.87
2019-03-30T19:11:21.533Z,14.00
2019-03-30T19:13:53.540Z,13.80
2019-03-30T19:16:26.194Z,13.60
2019-03-30T19:19:01.821Z,13.07
2019-03-30T19:21:43.039Z,13.53
2019-03-30T19:24:17.101Z,19.70
2019-03-30T19:26:50.125Z,16.10
2019-03-30T19:29:24.149Z,16.27
2019-03-30T19:31:59.184Z,18.73
2019-03-30T19:34:39.988Z,14.43
2019-03-30T19:37:13.655Z,16.50
2019-03-30T19:39:48.179Z,14.57
2019-03-30T19:42:21.269Z,13.27
2019-03-30T19:45:11.782Z,12.80
2019-03-30T19:48:02.031Z,12.13
2019-03-30T19:50:52.005Z,12.10
2019-03-30T19:53:42.093Z,11.50
2019-03-30T19:56:25.934Z,14.03
2019-03-30T19:59:10.130Z,12.43
2019-03-30T20:01:34.334Z,12.80
2019-03-30T20:04:27.637Z,12.73
2019-03-30T20:06:59.119Z,14.10
2019-03-30T20:09:32.475Z,14.60
2019-03-30T20:12:04.491Z,14.43
2019-03-30T20:14:37.623Z,14.30
2019-03-30T20:17:11.320Z,14.03
2019-03-30T20:19:44.289Z,14.40
2019-03-30T20:22:28.173Z,15.60
2019-03-30T20:25:00.479Z,15.20
2019-03-30T20:27:37.392Z,16.10
2019-03-30T20:30:11.982Z,16.50
2019-03-30T20:32:44.150Z,14.50
2019-03-30T20:35:17.156Z,16.00
2019-03-30T20:37:57.718Z,31.80
2019-03-30T20:40:47.797Z,44.03
2019-03-30T20:43:34.653Z,48.87
2019-03-30T20:46:14.057Z,25.73
2019-03-30T20:48:49.646Z,20.20
2019-03-30T20:51:25.239Z,20.30
2019-03-30T20:54:27.088Z,18.03
2019-03-30T20:57:19.563Z,17.83
2019-03-30T21:00:13.172Z,17.30
2019-03-30T21:02:53.010Z,17.47
2019-03-30T21:05:27.074Z,16.53
2019-03-30T21:08:04.807Z,18.37
2019-03-30T21:10:41.602Z,15.87
2019-03-30T21:13:36.891Z,15.90
2019-03-30T21:16:09.676Z,17.80
2019-03-30T21:18:44.444Z,15.83
2019-03-30T21:21:22.456Z,16.83
2019-03-30T21:23:58.934Z,18.10
2019-03-30T21:26:37.423Z,19.00
2019-03-30T21:29:20.498Z,19.77
2019-03-30T21:32:01.226Z,17.47
2019-03-30T21:34:51.358Z,18.60
2019-03-30T21:37:26.159Z,17.43
2019-03-30T21:40:00.394Z,18.73
2019-03-30T21:42:37.648Z,19.17
2019-03-30T21:45:15.232Z,19.13
2019-03-30T21:47:54.571Z,17.10
2019-03-30T21:50:32.127Z,18.37
2019-03-30T21:53:06.896Z,20.93
2019-03-30T21:55:40.798Z,22.97
2019-03-30T21:58:16.566Z,21.30
2019-03-30T22:00:49.857Z,20.93
2019-03-30T22:03:26.441Z,20.37
2019-03-30T22:06:01.207Z,19.30
2019-03-30T22:08:38.131Z,19.60
2019-03-30T22:11:11.797Z,19.77
2019-03-30T22:14:02.102Z,20.13
2019-03-30T22:16:36.854Z,90.30
2019-03-30T22:19:12.660Z,60.47
2019-03-30T22:21:44.950Z,28.73
2019-03-30T22:24:16.973Z,23.00
2019-03-30T22:26:50.028Z,20.13
2019-03-30T22:29:30.134Z,19.33
2019-03-30T22:32:04.004Z,19.00
2019-03-30T22:34:39.063Z,19.57
2019-03-30T22:37:18.997Z,17.97
2019-03-30T22:39:53.023Z,19.40
2019-03-30T22:42:27.717Z,24.90
2019-03-30T22:44:58.924Z,21.47
2019-03-30T22:47:36.525Z,20.83
2019-03-30T22:50:09.200Z,20.40
2019-03-30T22:52:56.142Z,19.57
2019-03-30T22:55:28.787Z,21.17
2019-03-30T22:58:02.638Z,20.43
2019-03-30T23:01:06.103Z,18.17
2019-03-30T23:03:49.989Z,20.33
2019-03-30T23:06:22.834Z,18.00
2019-03-30T23:08:57.492Z,21.43
2019-03-30T23:11:46.485Z,19.43
2019-03-30T23:14:38.067Z,19.73
2019-03-30T23:17:25.825Z,20.97
2019-03-30T23:20:00.689Z,19.73
2019-03-30T23:22:35.106Z,19.47
2019-03-30T23:25:09.924Z,19.50
2019-03-30T23:27:41.045Z,19.67
2019-03-30T23:30:15.253Z,21.47
2019-03-30T23:32:48.934Z,18.80
2019-03-30T23:35:27.993Z,19.67
2019-03-30T23:38:00.403Z,24.30
2019-03-30T23:40:36.767Z,21.20
2019-03-30T23:43:09.828Z,21.07
2019-03-30T23:45:56.052Z,21.63
2019-03-30T23:48:30.139Z,18.77
2019-03-30T23:51:03.936Z,20.73
2019-03-30T23:53:37.655Z,17.13
2019-03-30T23:56:26.972Z,16.50
2019-03-30T23:59:00.271Z,18.00
